createdAt,value
2019-02-25T00:00:28.488Z,12.83
2019-02-25T00:02:55.923Z,13.47
2019-02-25T00:05:23.288Z,14.93
2019-02-25T00:07:50.697Z,12.97
2019-02-25T00:10:18.048Z,14.00
2019-02-25T00:12:45.473Z,13.10
2019-02-25T00:15:12.894Z,12.20
2019-02-25T00:17:40.342Z,12.40
2019-02-25T00:20:09.317Z,12.27
2019-02-25T00:22:36.673Z,12.10
2019-02-25T00:25:04.388Z,11.33
2019-02-25T00:27:31.807Z,11.67
2019-02-25T00:29:59.228Z,11.57
2019-02-25T00:32:26.868Z,12.10
2019-02-25T00:34:54.297Z,11.13
2019-02-25T00:37:21.638Z,10.93
2019-02-25T00:39:49.043Z,10.30
2019-02-25T00:42:16.398Z,9.93
2019-02-25T00:44:43.825Z,10.37
2019-02-25T00:47:11.158Z,11.80
2019-02-25T00:49:38.598Z,12.37
2019-02-25T00:52:05.971Z,11.67
2019-02-25T00:54:33.363Z,12.80
2019-02-25T00:57:00.761Z,12.03
2019-02-25T00:59:29.158Z,12.97
2019-02-25T01:01:56.543Z,12.33
2019-02-25T01:04:23.948Z,12.40
2019-02-25T01:06:51.298Z,12.60
2019-02-25T01:09:18.721Z,12.27
2019-02-25T01:11:46.099Z,11.40
2019-02-25T01:14:13.894Z,12.07
2019-02-25T01:16:41.264Z,10.70
2019-02-25T01:19:08.656Z,11.07
2019-02-25T01:21:36.163Z,10.90
2019-02-25T01:24:03.578Z,11.60
2019-02-25T01:26:30.928Z,10.50
2019-02-25T01:28:58.383Z,11.47
2019-02-25T01:31:25.773Z,10.17
2019-02-25T01:33:53.189Z,11.73
2019-02-25T01:36:20.545Z,10.70
2019-02-25T01:38:47.973Z,9.53
2019-02-25T01:41:15.318Z,10.50
2019-02-25T01:43:43.188Z,11.10
2019-02-25T01:46:10.550Z,10.10
2019-02-25T01:48:37.991Z,9.57
2019-02-25T01:51:05.358Z,11.80
2019-02-25T01:53:32.748Z,10.10
2019-02-25T01:56:00.168Z,10.23
2019-02-25T01:58:27.528Z,9.93
2019-02-25T02:00:54.958Z,10.37
2019-02-25T02:03:22.317Z,9.87
2019-02-25T02:05:50.197Z,10.43
2019-02-25T02:08:17.638Z,9.17
2019-02-25T02:10:45.044Z,9.97
2019-02-25T02:13:14.420Z,9.63
2019-02-25T02:15:41.758Z,9.77
2019-02-25T02:18:09.093Z,10.87
2019-02-25T02:20:36.547Z,10.77
2019-02-25T02:23:04.182Z,10.87
2019-02-25T02:25:31.582Z,11.13
2019-02-25T02:27:59.160Z,11.40
2019-02-25T02:30:26.562Z,10.77
2019-02-25T02:32:54.009Z,10.30
2019-02-25T02:35:21.404Z,10.77
2019-02-25T02:37:48.745Z,9.43
2019-02-25T02:40:16.186Z,10.27
2019-02-25T02:42:46.360Z,9.70
2019-02-25T02:45:23.272Z,10.40
2019-02-25T02:47:56.852Z,10.17
2019-02-25T02:50:25.557Z,9.23
2019-02-25T02:52:53.042Z,10.37
2019-02-25T02:55:20.465Z,10.60
2019-02-25T02:57:47.914Z,10.33
2019-02-25T03:00:16.600Z,9.87
2019-02-25T03:02:43.963Z,9.80
2019-02-25T03:05:12.874Z,9.70
2019-02-25T03:07:40.263Z,11.10
2019-02-25T03:10:09.287Z,9.97
2019-02-25T03:12:36.818Z,9.87
2019-02-25T03:15:05.983Z,10.10
2019-02-25T03:17:33.328Z,10.23
2019-02-25T03:20:00.737Z,10.03
2019-02-25T03:22:28.081Z,10.80
2019-02-25T03:24:55.459Z,10.50
2019-02-25T03:27:22.833Z,9.73
2019-02-25T03:29:50.280Z,10.70
2019-02-25T03:32:17.698Z,9.57
2019-02-25T03:34:45.115Z,10.33
2019-02-25T03:37:12.456Z,11.87
2019-02-25T03:39:39.848Z,10.47
2019-02-25T03:42:07.434Z,11.07
2019-02-25T03:44:35.112Z,10.63
2019-02-25T03:47:02.493Z,10.33
2019-02-25T03:49:29.956Z,10.70
2019-02-25T03:51:57.383Z,11.23
2019-02-25T03:54:25.156Z,9.70
2019-02-25T03:56:52.551Z,10.70
2019-02-25T03:59:19.921Z,10.60
2019-02-25T04:01:47.422Z,9.03
2019-02-25T04:04:14.740Z,9.70
2019-02-25T04:06:42.144Z,9.60
2019-02-25T04:09:09.531Z,10.10
2019-02-25T04:11:36.933Z,9.73
2019-02-25T04:14:04.571Z,9.40
2019-02-25T04:16:31.992Z,9.53
2019-02-25T04:18:59.401Z,10.13
2019-02-25T04:21:26.827Z,9.83
2019-02-25T04:23:54.172Z,10.57
2019-02-25T04:26:21.661Z,10.80
2019-02-25T04:28:49.059Z,9.97
2019-02-25T04:31:16.461Z,9.77
2019-02-25T04:33:43.804Z,9.80
2019-02-25T04:36:11.219Z,9.67
2019-02-25T04:38:38.546Z,9.40
2019-02-25T04:41:05.951Z,9.10
2019-02-25T04:43:33.345Z,9.70
2019-02-25T04:46:00.815Z,11.30
2019-02-25T04:48:28.182Z,9.30
2019-02-25T04:50:55.578Z,10.60
2019-02-25T04:53:23.069Z,9.90
2019-02-25T04:55:50.558Z,10.00
2019-02-25T04:58:17.894Z,9.60
2019-02-25T05:00:45.311Z,9.90
2019-02-25T05:03:12.680Z,9.70
2019-02-25T05:05:40.125Z,10.20
2019-02-25T05:08:07.567Z,9.20
2019-02-25T05:10:34.938Z,9.37
2019-02-25T05:13:03.818Z,10.33
2019-02-25T05:15:31.455Z,9.47
2019-02-25T05:17:58.946Z,9.47
2019-02-25T05:20:26.358Z,9.93
2019-02-25T05:22:53.758Z,9.83
2019-02-25T05:25:21.282Z,10.37
2019-02-25T05:27:48.734Z,10.00
2019-02-25T05:30:16.813Z,10.27
2019-02-25T05:32:44.643Z,11.70
2019-02-25T05:35:12.387Z,10.90
2019-02-25T05:37:40.300Z,10.13
2019-02-25T05:40:10.959Z,10.63
2019-02-25T05:42:38.478Z,10.90
2019-02-25T05:45:06.112Z,10.60
2019-02-25T05:47:33.659Z,10.67
2019-02-25T05:50:01.324Z,10.73
2019-02-25T05:52:28.924Z,11.50
2019-02-25T05:54:56.401Z,10.77
2019-02-25T05:57:23.920Z,13.30
2019-02-25T05:59:51.436Z,10.27
2019-02-25T06:02:18.956Z,10.63
2019-02-25T06:04:46.480Z,10.83
2019-02-25T06:07:14.049Z,9.93
2019-02-25T06:09:41.510Z,9.60
2019-02-25T06:12:09.058Z,9.07
2019-02-25T06:14:36.565Z,9.07
2019-02-25T06:17:04.087Z,9.40
2019-02-25T06:19:31.556Z,9.80
2019-02-25T06:21:59.069Z,10.30
2019-02-25T06:24:26.540Z,11.67
2019-02-25T06:26:54.183Z,10.77
2019-02-25T06:29:21.691Z,10.80
2019-02-25T06:31:49.228Z,11.13
2019-02-25T06:34:16.991Z,10.83
2019-02-25T06:36:44.863Z,11.20
2019-02-25T06:39:12.332Z,10.73
2019-02-25T06:41:39.873Z,11.37
2019-02-25T06:44:07.424Z,10.10
2019-02-25T06:46:34.957Z,10.93
2019-02-25T06:49:02.440Z,11.57
2019-02-25T06:51:29.974Z,11.17
2019-02-25T06:53:57.633Z,10.03
2019-02-25T06:56:25.104Z,10.43
2019-02-25T06:58:52.642Z,10.23
2019-02-25T07:01:20.184Z,10.37
2019-02-25T07:04:07.282Z,10.03
2019-02-25T07:06:48.971Z,10.87
2019-02-25T07:09:26.560Z,9.90
2019-02-25T07:12:10.723Z,10.67
2019-02-25T07:14:47.505Z,10.43
2019-02-25T07:17:33.142Z,9.50
2019-02-25T07:20:16.554Z,10.93
2019-02-25T07:23:21.393Z,12.13
2019-02-25T07:25:59.323Z,13.07
2019-02-25T07:28:38.723Z,12.17
2019-02-25T07:31:37.479Z,11.83
2019-02-25T07:34:24.458Z,12.13
2019-02-25T07:37:01.413Z,11.07
2019-02-25T07:39:44.648Z,11.50
2019-02-25T07:42:37.648Z,9.43
2019-02-25T07:45:25.945Z,9.80
2019-02-25T07:48:07.602Z,9.30
2019-02-25T07:50:52.873Z,9.83
2019-02-25T07:53:42.593Z,10.10
2019-02-25T07:56:29.843Z,10.20
2019-02-25T07:59:12.311Z,8.90
2019-02-25T08:02:11.124Z,9.57
2019-02-25T08:04:58.053Z,9.23
2019-02-25T08:07:50.778Z,9.87
2019-02-25T08:10:30.228Z,9.87
2019-02-25T08:13:20.061Z,10.47
2019-02-25T08:16:15.643Z,10.07
2019-02-25T08:19:17.719Z,10.83
2019-02-25T08:22:23.148Z,10.33
2019-02-25T08:25:07.636Z,9.63
2019-02-25T08:27:41.488Z,9.90
2019-02-25T08:30:18.661Z,9.93
2019-02-25T08:33:01.854Z,10.20
2019-02-25T08:36:15.505Z,10.40
2019-02-25T08:38:58.771Z,11.17
2019-02-25T08:41:48.738Z,11.33
2019-02-25T08:44:44.368Z,10.90
2019-02-25T08:47:31.318Z,11.33
2019-02-25T08:50:04.448Z,10.93
2019-02-25T08:52:31.918Z,10.90
2019-02-25T08:54:59.861Z,12.20
2019-02-25T08:57:27.365Z,11.17
2019-02-25T08:59:54.933Z,10.77
2019-02-25T09:02:22.313Z,10.30
2019-02-25T09:04:49.963Z,10.97
2019-02-25T09:07:17.856Z,10.00
2019-02-25T09:09:45.433Z,10.63
2019-02-25T09:12:12.874Z,10.57
2019-02-25T09:14:40.408Z,9.00
2019-02-25T09:17:07.800Z,10.53
2019-02-25T09:19:35.353Z,9.57
2019-02-25T09:22:03.061Z,9.93
2019-02-25T09:24:30.676Z,9.10
2019-02-25T09:26:58.219Z,9.47
2019-02-25T09:29:26.013Z,10.13
2019-02-25T09:31:53.601Z,9.63
2019-02-25T09:34:21.158Z,10.77
2019-02-25T09:36:48.618Z,10.80
2019-02-25T09:39:16.834Z,10.00
2019-02-25T09:41:44.580Z,10.30
2019-02-25T09:44:11.982Z,10.53
2019-02-25T09:46:39.509Z,9.83
2019-02-25T09:49:06.953Z,9.93
2019-02-25T09:51:34.483Z,9.60
2019-02-25T09:54:01.972Z,9.30
2019-02-25T09:56:29.509Z,9.00
2019-02-25T09:58:57.094Z,7.77
2019-02-25T10:01:24.533Z,9.57
2019-02-25T10:03:52.069Z,8.67
2019-02-25T10:06:20.764Z,9.20
2019-02-25T10:08:48.211Z,9.37
2019-02-25T10:11:15.695Z,9.67
2019-02-25T10:13:43.264Z,9.10
2019-02-25T10:16:10.718Z,8.77
2019-02-25T10:18:38.152Z,9.90
2019-02-25T10:21:05.644Z,9.10
2019-02-25T10:23:33.028Z,9.60
2019-02-25T10:26:00.505Z,8.67
2019-02-25T10:28:28.418Z,9.63
2019-02-25T10:30:55.844Z,9.73
2019-02-25T10:33:23.302Z,9.47
2019-02-25T10:35:51.186Z,7.87
2019-02-25T10:38:19.565Z,7.73
2019-02-25T10:40:49.592Z,8.40
2019-02-25T10:43:17.311Z,8.47
2019-02-25T10:45:45.402Z,8.07
2019-02-25T10:48:13.078Z,7.50
2019-02-25T10:50:40.928Z,8.10
2019-02-25T10:53:10.979Z,7.70
2019-02-25T10:55:44.945Z,7.53
2019-02-25T10:58:12.623Z,6.90
2019-02-25T11:00:43.783Z,8.13
2019-02-25T11:03:13.478Z,8.77
2019-02-25T11:05:42.611Z,7.83
2019-02-25T11:08:13.897Z,7.50
2019-02-25T11:10:49.062Z,8.10
2019-02-25T11:13:17.556Z,7.33
2019-02-25T11:15:46.672Z,7.23
2019-02-25T11:18:14.643Z,6.90
2019-02-25T11:20:42.108Z,6.20
2019-02-25T11:23:10.518Z,6.47
2019-02-25T11:25:39.073Z,6.57
2019-02-25T11:28:07.602Z,6.27
2019-02-25T11:30:35.966Z,6.60
2019-02-25T11:33:03.594Z,6.53
2019-02-25T11:35:34.158Z,6.60
2019-02-25T11:38:01.958Z,7.20
2019-02-25T11:40:31.269Z,6.50
2019-02-25T11:42:58.968Z,6.80
2019-02-25T11:45:26.408Z,6.03
2019-02-25T11:47:54.198Z,5.40
2019-02-25T11:50:21.648Z,5.13
2019-02-25T11:52:49.660Z,5.20
2019-02-25T11:55:17.084Z,5.60
2019-02-25T11:57:44.732Z,6.20
2019-02-25T12:00:15.251Z,5.77
2019-02-25T12:02:43.331Z,5.40
2019-02-25T12:05:11.261Z,5.27
2019-02-25T12:07:38.732Z,5.10
2019-02-25T12:10:06.919Z,4.67
2019-02-25T12:12:34.487Z,5.30
2019-02-25T12:15:01.985Z,5.20
2019-02-25T12:17:29.451Z,6.03
2019-02-25T12:19:56.889Z,5.30
2019-02-25T12:22:24.478Z,5.53
2019-02-25T12:24:51.883Z,4.80
2019-02-25T12:27:19.432Z,5.43
2019-02-25T12:29:47.013Z,3.97
2019-02-25T12:32:14.571Z,4.33
2019-02-25T12:34:42.091Z,3.93
2019-02-25T12:37:11.531Z,4.50
2019-02-25T12:39:39.139Z,4.50
2019-02-25T12:42:06.881Z,4.87
2019-02-25T12:44:34.856Z,4.80
2019-02-25T12:47:02.311Z,4.07
2019-02-25T12:49:29.785Z,4.23
2019-02-25T12:51:57.161Z,3.67
2019-02-25T12:54:24.700Z,5.93
2019-02-25T12:56:52.158Z,5.57
2019-02-25T12:59:19.636Z,4.77
2019-02-25T13:01:47.308Z,5.13
2019-02-25T13:04:14.868Z,4.73
2019-02-25T13:06:42.390Z,4.20
2019-02-25T13:09:14.035Z,3.87
2019-02-25T13:11:41.440Z,3.60
2019-02-25T13:14:08.983Z,2.33
2019-02-25T13:16:36.484Z,3.70
2019-02-25T13:19:03.982Z,2.00
2019-02-25T13:21:31.538Z,2.90
2019-02-25T13:23:59.462Z,1.50
2019-02-25T13:26:29.265Z,2.60
2019-02-25T13:28:58.228Z,2.97
2019-02-25T13:31:25.598Z,3.20
2019-02-25T13:33:53.119Z,4.07
2019-02-25T13:36:20.484Z,3.33
2019-02-25T13:38:48.059Z,4.10
2019-02-25T13:41:15.606Z,3.93
2019-02-25T13:43:43.149Z,3.90
2019-02-25T13:46:10.622Z,4.20
2019-02-25T13:48:38.457Z,4.67
2019-02-25T13:51:05.853Z,4.53
2019-02-25T13:53:33.327Z,4.57
2019-02-25T13:56:01.005Z,5.07
2019-02-25T13:58:28.492Z,5.27
2019-02-25T14:00:55.962Z,4.20
2019-02-25T14:03:23.514Z,5.10
2019-02-25T14:05:51.029Z,5.53
2019-02-25T14:08:18.489Z,5.33
2019-02-25T14:10:46.230Z,5.13
2019-02-25T14:13:13.915Z,5.53
2019-02-25T14:15:41.574Z,5.33
2019-02-25T14:18:09.124Z,6.00
2019-02-25T14:20:40.052Z,5.80
2019-02-25T14:23:12.496Z,5.77
2019-02-25T14:25:41.518Z,4.77
2019-02-25T14:28:22.944Z,5.70
2019-02-25T14:30:51.625Z,5.90
2019-02-25T14:33:19.290Z,5.50
2019-02-25T14:35:56.077Z,6.30
2019-02-25T14:38:29.500Z,5.77
2019-02-25T14:40:57.404Z,6.60
2019-02-25T14:43:27.278Z,6.50
2019-02-25T14:45:56.805Z,6.23
2019-02-25T14:48:25.348Z,5.70
2019-02-25T14:50:53.323Z,6.90
2019-02-25T14:53:20.821Z,6.57
2019-02-25T14:55:50.340Z,6.33
2019-02-25T14:58:17.853Z,6.30
2019-02-25T15:00:45.784Z,6.07
2019-02-25T15:03:13.506Z,6.10
2019-02-25T15:05:41.604Z,6.60
2019-02-25T15:08:09.181Z,5.70
2019-02-25T15:10:38.486Z,5.80
2019-02-25T15:13:08.374Z,7.40
2019-02-25T15:15:37.055Z,6.23
2019-02-25T15:18:05.179Z,6.03
2019-02-25T15:20:32.912Z,6.03
2019-02-25T15:23:00.799Z,6.77
2019-02-25T15:25:31.168Z,6.30
2019-02-25T15:27:58.222Z,6.70
2019-02-25T15:30:30.427Z,7.00
2019-02-25T15:33:00.091Z,6.90
2019-02-25T15:35:31.358Z,6.60
2019-02-25T15:37:57.948Z,5.97
2019-02-25T15:40:27.279Z,5.90
2019-02-25T15:43:02.948Z,5.03
2019-02-25T15:45:32.915Z,3.73
2019-02-25T15:48:01.659Z,4.60
2019-02-25T15:50:29.543Z,4.87
2019-02-25T15:53:00.861Z,4.60
2019-02-25T15:55:29.676Z,4.97
2019-02-25T15:59:08.030Z,5.40
2019-02-25T16:01:35.947Z,5.87
2019-02-25T16:04:15.354Z,5.37
2019-02-25T16:06:43.219Z,5.40
2019-02-25T16:09:11.660Z,5.60
2019-02-25T16:11:41.224Z,5.20
2019-02-25T16:14:10.939Z,5.63
2019-02-25T16:16:40.277Z,6.33
2019-02-25T16:19:08.161Z,5.90
2019-02-25T16:21:43.185Z,5.20
2019-02-25T16:24:12.332Z,6.83
2019-02-25T16:26:53.702Z,11.90
2019-02-25T16:29:35.757Z,12.87
2019-02-25T16:32:35.054Z,8.23
2019-02-25T16:35:04.610Z,10.20
2019-02-25T16:37:33.407Z,11.33
2019-02-25T16:40:06.522Z,7.57
2019-02-25T16:42:34.745Z,7.03
2019-02-25T16:45:06.284Z,7.43
2019-02-25T16:47:35.576Z,6.97
2019-02-25T16:50:04.161Z,9.53
2019-02-25T16:52:32.130Z,9.67
2019-02-25T16:55:00.101Z,9.60
2019-02-25T16:57:28.168Z,9.60
2019-02-25T16:59:57.524Z,9.00
2019-02-25T17:02:30.201Z,14.40
2019-02-25T17:04:57.651Z,12.93
2019-02-25T17:07:25.658Z,11.60
2019-02-25T17:09:55.018Z,12.80
2019-02-25T17:12:25.192Z,13.33
2019-02-25T17:14:53.212Z,11.97
2019-02-25T17:17:24.850Z,6.80
2019-02-25T17:19:54.053Z,7.30
2019-02-25T17:22:22.423Z,6.70
2019-02-25T17:24:52.316Z,6.27
2019-02-25T17:27:19.869Z,7.13
2019-02-25T17:29:49.169Z,7.20
2019-02-25T17:32:19.392Z,6.13
2019-02-25T17:34:47.083Z,7.10
2019-02-25T17:37:16.604Z,6.93
2019-02-25T17:39:44.871Z,6.17
2019-02-25T17:42:13.546Z,7.90
2019-02-25T17:44:41.632Z,8.33
2019-02-25T17:47:11.097Z,8.70
2019-02-25T17:49:40.578Z,8.97
2019-02-25T17:52:09.258Z,8.60
2019-02-25T17:54:37.739Z,9.07
2019-02-25T17:57:07.602Z,12.07
2019-02-25T17:59:36.554Z,11.17
2019-02-25T18:02:06.676Z,11.23
2019-02-25T18:04:34.754Z,11.27
2019-02-25T18:07:03.152Z,11.40
2019-02-25T18:09:31.252Z,12.60
2019-02-25T18:12:00.028Z,12.33
2019-02-25T18:14:28.831Z,12.50
2019-02-25T18:16:57.413Z,14.10
2019-02-25T18:19:27.135Z,13.50
2019-02-25T18:21:58.219Z,13.53
2019-02-25T18:24:26.787Z,12.87
2019-02-25T18:26:54.876Z,12.23
2019-02-25T18:29:23.564Z,13.43
2019-02-25T18:31:52.516Z,11.93
2019-02-25T18:34:20.349Z,9.77
2019-02-25T18:36:48.964Z,8.93
2019-02-25T18:39:18.316Z,8.67
2019-02-25T18:43:16.593Z,9.83
2019-02-25T18:45:44.817Z,9.53
2019-02-25T18:48:12.986Z,10.90
2019-02-25T18:50:40.923Z,11.17
2019-02-25T18:53:09.102Z,10.77
2019-02-25T18:59:21.439Z,10.37
2019-02-25T19:18:10.629Z,7.77
2019-02-25T19:20:41.062Z,8.40
2019-02-25T19:23:10.250Z,7.60
2019-02-25T19:55:20.626Z,9.97
2019-02-25T20:10:02.169Z,12.30
2019-02-25T20:13:07.783Z,12.63
2019-02-25T20:15:37.658Z,13.70
2019-02-25T20:18:14.342Z,13.00
2019-02-25T20:31:38.631Z,11.63
2019-02-25T21:26:33.774Z,9.93
2019-02-25T21:36:01.658Z,10.87
2019-02-25T21:38:30.313Z,11.23
2019-02-25T21:40:58.676Z,10.47
2019-02-25T21:43:28.963Z,10.40
2019-02-25T21:45:56.619Z,11.43
2019-02-25T21:48:27.523Z,11.30
2019-02-25T21:50:58.067Z,11.83
2019-02-25T21:53:24.538Z,11.07
2019-02-25T21:55:53.500Z,10.27
2019-02-25T21:58:23.589Z,11.67
2019-02-25T22:00:50.831Z,11.27
2019-02-25T22:03:19.516Z,10.67
2019-02-25T22:05:49.384Z,11.27
2019-02-25T22:08:20.104Z,12.03
2019-02-25T22:11:13.030Z,11.57
2019-02-25T22:13:38.931Z,12.20
2019-02-25T22:16:08.008Z,12.33
2019-02-25T22:18:36.330Z,11.60
2019-02-25T22:21:07.163Z,12.93
2019-02-25T22:23:35.033Z,12.50
2019-02-25T22:26:02.658Z,12.90
2019-02-25T22:28:30.582Z,11.87
2019-02-25T22:30:59.559Z,12.03
2019-02-25T22:33:28.047Z,12.03
2019-02-25T22:35:56.496Z,12.33
2019-02-25T22:38:23.896Z,11.17
2019-02-25T22:40:53.157Z,12.67
2019-02-25T22:43:20.875Z,11.50
2019-02-25T22:45:48.428Z,12.20
2019-02-25T22:48:16.383Z,12.33
2019-02-25T22:50:45.141Z,11.80
2019-02-25T22:53:12.643Z,12.67
2019-02-25T22:55:42.678Z,12.20
2019-02-25T22:58:10.926Z,12.97
2019-02-25T23:00:43.517Z,13.60
2019-02-25T23:03:15.219Z,13.60
2019-02-25T23:05:43.049Z,13.03
2019-02-25T23:08:12.760Z,12.63
2019-02-25T23:10:42.010Z,11.97
2019-02-25T23:13:09.281Z,12.37
2019-02-25T23:15:36.803Z,12.47
2019-02-25T23:18:05.590Z,13.40
2019-02-25T23:20:34.043Z,11.73
2019-02-25T23:23:06.118Z,12.60
2019-02-25T23:25:31.056Z,12.53
2019-02-25T23:28:00.220Z,12.83
2019-02-25T23:30:27.838Z,13.10
2019-02-25T23:32:55.272Z,12.27
2019-02-25T23:35:23.494Z,13.20
2019-02-25T23:37:54.408Z,12.73
2019-02-25T23:40:21.298Z,12.97
2019-02-25T23:42:49.189Z,12.93
2019-02-25T23:45:18.386Z,12.53
2019-02-25T23:47:46.100Z,12.13
2019-02-25T23:50:13.846Z,13.17
2019-02-25T23:52:41.332Z,12.73
2019-02-25T23:55:12.234Z,12.93
2019-02-25T23:57:38.433Z,13.63
